createdAt,value
2023-02-15T00:00:09.207Z,97909.59
2023-02-15T00:02:36.127Z,97904.38
2023-02-15T00:05:03.046Z,97905.84
2023-02-15T00:07:29.866Z,97898.75
2023-02-15T00:09:56.717Z,97896.50
2023-02-15T00:12:23.539Z,97894.25
2023-02-15T00:14:50.346Z,97887.66
2023-02-15T00:17:17.145Z,97886.72
2023-02-15T00:19:44.001Z,97892.34
2023-02-15T00:22:10.879Z,97888.38
2023-02-15T00:24:37.716Z,97888.84
2023-02-15T00:27:04.498Z,97887.09
2023-02-15T00:29:31.669Z,97878.25
2023-02-15T00:31:58.449Z,97874.25
2023-02-15T00:34:27.892Z,97871.50
2023-02-15T00:36:55.004Z,97871.38
2023-02-15T00:39:22.315Z,97880.31
2023-02-15T00:41:49.181Z,97872.94
2023-02-15T00:44:16.845Z,97871.38
2023-02-15T00:46:44.032Z,97870.41
2023-02-15T00:49:11.141Z,97860.66
2023-02-15T00:51:38.666Z,97872.03
2023-02-15T00:54:05.535Z,97859.56
2023-02-15T00:56:32.406Z,97861.44
2023-02-15T00:58:59.177Z,97861.13
2023-02-15T01:01:26.906Z,97861.09
2023-02-15T01:03:54.106Z,97874.44
2023-02-15T01:06:21.114Z,97868.94
2023-02-15T01:08:48.697Z,97857.31
2023-02-15T01:11:22.793Z,97870.34
2023-02-15T01:13:56.349Z,97865.78
2023-02-15T01:16:25.529Z,97856.88
2023-02-15T01:18:52.593Z,97861.63
2023-02-15T01:21:26.129Z,97846.06
2023-02-15T01:23:53.106Z,97839.44
2023-02-15T01:26:20.123Z,97845.28
2023-02-15T01:28:47.445Z,97844.16
2023-02-15T01:31:20.433Z,97842.00
2023-02-15T01:33:48.469Z,97845.53
2023-02-15T01:36:15.473Z,97842.00
2023-02-15T01:38:42.662Z,97843.66
2023-02-15T01:41:23.747Z,97831.72
2023-02-15T01:44:00.171Z,97822.31
2023-02-15T01:46:40.108Z,97820.53
2023-02-15T01:49:16.630Z,97819.41
2023-02-15T01:51:47.309Z,97823.63
2023-02-15T01:54:29.817Z,97817.00
2023-02-15T01:57:02.847Z,97807.63
2023-02-15T01:59:30.950Z,97800.66
2023-02-15T02:02:00.814Z,97798.44
2023-02-15T02:04:41.858Z,97804.97
2023-02-15T02:07:10.966Z,97795.13
2023-02-15T02:09:38.265Z,97799.84
2023-02-15T02:12:05.856Z,97787.19
2023-02-15T02:14:32.708Z,97781.66
2023-02-15T02:17:51.082Z,97791.06
2023-02-15T02:20:37.276Z,97785.75
2023-02-15T02:23:17.975Z,97787.72
2023-02-15T02:25:59.207Z,97792.72
2023-02-15T02:28:59.591Z,97799.09
2023-02-15T02:32:10.187Z,97795.03
2023-02-15T02:35:05.348Z,97801.22
2023-02-15T02:37:55.694Z,97793.88
2023-02-15T02:40:53.199Z,97798.03
2023-02-15T02:43:32.607Z,97790.44
2023-02-15T02:46:22.093Z,97794.72
2023-02-15T02:48:50.499Z,97794.75
2023-02-15T02:51:22.295Z,97780.34
2023-02-15T02:54:01.785Z,97777.47
2023-02-15T02:56:38.661Z,97769.31
2023-02-15T02:59:20.006Z,97770.97
2023-02-15T03:01:58.568Z,97769.09
2023-02-15T03:04:34.133Z,97773.31
2023-02-15T03:07:11.984Z,97776.38
2023-02-15T03:09:53.295Z,97779.53
2023-02-15T03:12:26.893Z,97788.31
2023-02-15T03:15:01.824Z,97786.09
2023-02-15T03:17:34.196Z,97784.66
2023-02-15T03:20:08.223Z,97778.25
2023-02-15T03:22:45.775Z,97777.75
2023-02-15T03:25:29.056Z,97775.56
2023-02-15T03:28:02.932Z,97775.78
2023-02-15T03:30:31.162Z,97769.53
2023-02-15T03:33:00.893Z,97770.97
2023-02-15T03:35:40.520Z,97775.72
2023-02-15T03:38:10.084Z,97774.53
2023-02-15T03:41:00.764Z,97775.47
2023-02-15T03:43:56.715Z,97786.09
2023-02-15T03:46:34.327Z,97793.16
2023-02-15T03:49:18.622Z,97790.13
2023-02-15T03:51:49.632Z,97793.09
2023-02-15T03:54:44.815Z,97795.81
2023-02-15T03:57:41.981Z,97792.72
2023-02-15T04:00:42.803Z,97786.69
2023-02-15T04:03:27.533Z,97780.66
2023-02-15T04:05:54.396Z,97780.53
2023-02-15T04:08:21.592Z,97778.03
2023-02-15T04:10:54.373Z,97782.78
2023-02-15T04:13:23.402Z,97781.78
2023-02-15T04:16:07.643Z,97787.84
2023-02-15T04:18:58.747Z,97783.22
2023-02-15T04:21:47.112Z,97781.13
2023-02-15T04:24:33.909Z,97780.16
2023-02-15T04:27:01.558Z,97782.50
2023-02-15T04:29:29.377Z,97772.75
2023-02-15T04:31:59.077Z,97776.84
2023-02-15T04:34:26.364Z,97775.16
2023-02-15T04:36:53.183Z,97776.34
2023-02-15T04:39:20.537Z,97771.47
2023-02-15T04:41:48.667Z,97771.84
2023-02-15T04:44:15.609Z,97771.41
2023-02-15T04:46:42.408Z,97770.97
2023-02-15T04:49:10.328Z,97763.88
2023-02-15T04:51:37.328Z,97766.00
2023-02-15T04:54:04.348Z,97766.72
2023-02-15T04:56:32.108Z,97769.53
2023-02-15T04:58:58.948Z,97765.97
2023-02-15T05:01:26.023Z,97764.59
2023-02-15T05:03:53.015Z,97774.97
2023-02-15T05:06:19.926Z,97769.53
2023-02-15T05:08:46.772Z,97770.81
2023-02-15T05:11:13.602Z,97773.31
2023-02-15T05:13:40.581Z,97778.25
2023-02-15T05:16:07.423Z,97780.34
2023-02-15T05:18:34.321Z,97786.63
2023-02-15T05:21:01.173Z,97789.06
2023-02-15T05:23:28.096Z,97789.06
2023-02-15T05:26:13.356Z,97783.19
2023-02-15T05:28:40.265Z,97788.16
2023-02-15T05:31:19.968Z,97782.34
2023-02-15T05:33:47.147Z,97785.66
2023-02-15T05:36:14.417Z,97792.41
2023-02-15T05:38:41.288Z,97794.38
2023-02-15T05:41:09.752Z,97793.44
2023-02-15T05:43:37.256Z,97785.22
2023-02-15T05:46:06.257Z,97783.41
2023-02-15T05:48:34.308Z,97794.38
2023-02-15T05:51:08.545Z,97791.47
2023-02-15T05:53:38.352Z,97784.00
2023-02-15T05:56:07.809Z,97786.00
2023-02-15T05:58:41.474Z,97786.38
2023-02-15T06:01:18.126Z,97793.72
2023-02-15T06:03:46.800Z,97795.81
2023-02-15T06:06:13.959Z,97798.34
2023-02-15T06:08:41.297Z,97789.97
2023-02-15T06:11:08.484Z,97793.34
2023-02-15T06:13:38.561Z,97788.97
2023-02-15T06:16:07.387Z,97790.84
2023-02-15T06:18:35.125Z,97789.84
2023-02-15T06:21:01.944Z,97795.47
2023-02-15T06:23:29.534Z,97795.88
2023-02-15T06:25:56.532Z,97799.00
2023-02-15T06:28:23.397Z,97813.69
2023-02-15T06:30:50.250Z,97815.00
2023-02-15T06:33:17.146Z,97821.22
2023-02-15T06:35:44.073Z,97822.91
2023-02-15T06:38:11.006Z,97825.06
2023-02-15T06:40:37.819Z,97821.03
2023-02-15T06:43:05.077Z,97826.78
2023-02-15T06:45:31.902Z,97829.81
2023-02-15T06:47:58.725Z,97827.38
2023-02-15T06:50:25.579Z,97842.16
2023-02-15T06:52:58.042Z,97836.91
2023-02-15T06:55:25.022Z,97833.47
2023-02-15T06:57:52.008Z,97833.88
2023-02-15T07:00:19.489Z,97822.69
2023-02-15T07:02:46.481Z,97824.56
2023-02-15T07:05:13.473Z,97823.47
2023-02-15T07:07:40.319Z,97827.03
2023-02-15T07:10:07.820Z,97824.44
2023-02-15T07:12:43.619Z,97827.94
2023-02-15T07:15:13.908Z,97824.97
2023-02-15T07:17:40.991Z,97829.91
2023-02-15T07:20:24.120Z,97826.59
2023-02-15T07:22:51.646Z,97822.47
2023-02-15T07:25:19.315Z,97826.66
2023-02-15T07:27:46.644Z,97820.00
2023-02-15T07:30:17.198Z,97818.34
2023-02-15T07:33:05.313Z,97815.88
2023-02-15T07:35:33.760Z,97810.66
2023-02-15T07:38:01.204Z,97809.13
2023-02-15T07:40:28.141Z,97808.94
2023-02-15T07:42:55.820Z,97813.06
2023-02-15T07:45:23.134Z,97799.78
2023-02-15T07:47:50.199Z,97810.81
2023-02-15T07:50:17.140Z,97817.44
2023-02-15T07:52:44.008Z,97808.53
2023-02-15T07:55:13.654Z,97814.75
2023-02-15T07:57:49.241Z,97819.13
2023-02-15T08:00:18.842Z,97812.47
2023-02-15T08:03:11.003Z,97816.44
2023-02-15T08:05:38.406Z,97813.47
2023-02-15T08:08:05.360Z,97807.63
2023-02-15T08:10:51.115Z,97808.63
2023-02-15T08:13:17.932Z,97811.72
2023-02-15T08:15:51.787Z,97810.38
2023-02-15T08:18:18.962Z,97812.78
2023-02-15T08:20:51.129Z,97805.88
2023-02-15T08:23:17.966Z,97808.56
2023-02-15T08:25:44.801Z,97796.28
2023-02-15T08:28:12.082Z,97801.28
2023-02-15T08:30:38.937Z,97796.50
2023-02-15T08:33:05.725Z,97801.44
2023-02-15T08:35:32.588Z,97806.81
2023-02-15T08:37:59.367Z,97801.00
2023-02-15T08:40:26.193Z,97801.47
2023-02-15T08:42:52.971Z,97796.06
2023-02-15T08:45:19.794Z,97799.13
2023-02-15T08:47:46.731Z,97802.94
2023-02-15T08:50:13.650Z,97797.75
2023-02-15T08:52:40.443Z,97796.63
2023-02-15T08:55:07.433Z,97793.81
2023-02-15T08:57:34.227Z,97790.78
2023-02-15T09:00:01.087Z,97790.69
2023-02-15T09:02:27.977Z,97795.97
2023-02-15T09:04:54.826Z,97802.56
2023-02-15T09:07:21.653Z,97801.81
2023-02-15T09:09:48.459Z,97806.09
2023-02-15T09:12:15.312Z,97798.72
2023-02-15T09:14:42.140Z,97798.41
2023-02-15T09:17:08.920Z,97797.81
2023-02-15T09:19:35.748Z,97795.16
2023-02-15T09:22:02.528Z,97798.31
2023-02-15T09:24:33.634Z,97803.31
2023-02-15T09:27:00.428Z,97793.25
2023-02-15T09:29:27.245Z,97801.44
2023-02-15T09:31:54.520Z,97798.34
2023-02-15T09:34:23.388Z,97807.56
2023-02-15T09:36:52.565Z,97806.16
2023-02-15T09:39:25.124Z,97800.25
2023-02-15T09:42:28.741Z,97801.44
2023-02-15T09:45:31.500Z,97797.06
2023-02-15T09:48:14.266Z,97803.06
2023-02-15T09:51:25.475Z,97797.88
2023-02-15T09:54:21.072Z,97795.72
2023-02-15T09:57:03.247Z,97796.22
2023-02-15T10:00:10.324Z,97800.22
2023-02-15T10:02:52.103Z,97802.72
2023-02-15T10:05:46.416Z,97800.22
2023-02-15T10:08:30.569Z,97800.25
2023-02-15T10:11:40.186Z,97800.66
2023-02-15T10:14:46.404Z,97804.72
2023-02-15T10:17:42.884Z,97806.50
2023-02-15T10:20:22.844Z,97806.84
2023-02-15T10:23:01.668Z,97801.16
2023-02-15T10:25:34.364Z,97793.13
2023-02-15T10:28:08.019Z,97787.88
2023-02-15T10:30:49.612Z,97787.28
2023-02-15T10:33:40.138Z,97784.31
2023-02-15T10:36:43.965Z,97786.28
2023-02-15T10:39:29.200Z,97786.97
2023-02-15T10:42:35.881Z,97787.84
2023-02-15T10:45:14.155Z,97781.69
2023-02-15T10:47:49.683Z,97788.66
2023-02-15T10:50:37.978Z,97786.06
2023-02-15T10:53:41.725Z,97790.59
2023-02-15T10:56:22.927Z,97781.31
2023-02-15T10:59:01.733Z,97768.63
2023-02-15T11:01:36.684Z,97760.25
2023-02-15T11:04:09.174Z,97759.38
2023-02-15T11:06:41.024Z,97750.84
2023-02-15T11:09:16.465Z,97754.72
2023-02-15T11:11:47.603Z,97746.78
2023-02-15T11:14:49.103Z,97744.91
2023-02-15T11:17:23.098Z,97742.69
2023-02-15T11:20:26.224Z,97736.47
2023-02-15T11:22:54.484Z,97735.94
2023-02-15T11:25:29.723Z,97738.00
2023-02-15T11:27:57.254Z,97717.03
2023-02-15T11:30:30.263Z,97721.59
2023-02-15T11:32:59.994Z,97718.44
2023-02-15T11:36:02.297Z,97711.41
2023-02-15T11:38:33.682Z,97703.28
2023-02-15T11:41:04.726Z,97703.06
2023-02-15T11:43:55.471Z,97690.25
2023-02-15T11:46:22.864Z,97689.06
2023-02-15T11:48:50.134Z,97689.66
2023-02-15T11:51:22.113Z,97689.16
2023-02-15T11:53:51.534Z,97689.25
2023-02-15T11:56:28.185Z,97689.69
2023-02-15T11:59:12.643Z,97681.00
2023-02-15T12:01:46.069Z,97686.47
2023-02-15T12:04:25.867Z,97675.56
2023-02-15T12:07:13.407Z,97676.69
2023-02-15T12:10:17.390Z,97673.13
2023-02-15T12:12:44.316Z,97667.50
2023-02-15T12:15:13.701Z,97668.19
2023-02-15T12:17:50.231Z,97667.22
2023-02-15T12:20:17.065Z,97668.44
2023-02-15T12:22:51.803Z,97668.50
2023-02-15T12:25:40.874Z,97654.50
2023-02-15T12:28:42.163Z,97659.41
2023-02-15T12:31:26.150Z,97647.09
2023-02-15T12:33:57.775Z,97646.69
2023-02-15T12:36:33.909Z,97653.13
2023-02-15T12:39:12.928Z,97646.53
2023-02-15T12:41:55.827Z,97643.25
2023-02-15T12:44:31.238Z,97646.28
2023-02-15T12:47:17.446Z,97645.41
2023-02-15T12:49:48.592Z,97646.97
2023-02-15T12:52:19.036Z,97637.22
2023-02-15T12:54:45.897Z,97647.94
2023-02-15T12:57:33.790Z,97642.97
2023-02-15T13:00:07.292Z,97634.59
2023-02-15T13:02:41.932Z,97630.03
2023-02-15T13:05:39.411Z,97629.91
2023-02-15T13:08:29.277Z,97623.50
2023-02-15T13:11:12.424Z,97614.81
2023-02-15T13:14:01.314Z,97612.19
2023-02-15T13:16:41.192Z,97610.06
2023-02-15T13:19:18.084Z,97604.69
2023-02-15T13:21:51.336Z,97599.72
2023-02-15T13:24:28.933Z,97603.03
2023-02-15T13:27:14.166Z,97596.22
2023-02-15T13:29:46.580Z,97592.06
2023-02-15T13:32:37.275Z,97592.00
2023-02-15T13:35:08.105Z,97587.03
2023-02-15T13:37:59.069Z,97595.59
2023-02-15T13:40:34.474Z,97599.78
2023-02-15T13:43:19.133Z,97601.16
2023-02-15T13:46:06.618Z,97604.91
2023-02-15T13:49:12.080Z,97606.00
2023-02-15T13:52:09.138Z,97609.69
2023-02-15T13:55:42.411Z,97606.63
2023-02-15T13:58:43.369Z,97596.50
2023-02-15T14:01:23.031Z,97599.78
2023-02-15T14:04:16.901Z,97593.47
2023-02-15T14:07:11.293Z,97588.75
2023-02-15T14:10:11.793Z,97596.34
2023-02-15T14:12:59.467Z,97583.66
2023-02-15T14:16:19.973Z,97582.00
2023-02-15T14:19:50.664Z,97572.56
2023-02-15T14:22:42.198Z,97576.56
2023-02-15T14:25:32.640Z,97578.50
2023-02-15T14:28:13.529Z,97574.56
2023-02-15T14:30:45.864Z,97580.13
2023-02-15T14:33:15.501Z,97577.97
2023-02-15T14:35:43.868Z,97574.75
2023-02-15T14:38:10.579Z,97577.84
2023-02-15T14:41:08.123Z,97582.25
2023-02-15T14:44:08.313Z,97575.94
2023-02-15T14:47:16.812Z,97579.63
2023-02-15T14:49:43.676Z,97573.44
2023-02-15T14:52:12.511Z,97571.47
2023-02-15T14:54:39.271Z,97573.69
2023-02-15T14:57:07.398Z,97569.31
2023-02-15T15:00:07.881Z,97572.88
2023-02-15T15:02:49.399Z,97565.47
2023-02-15T15:05:25.849Z,97567.91
2023-02-15T15:07:57.773Z,97566.78
2023-02-15T15:10:24.652Z,97567.03
2023-02-15T15:12:58.931Z,97567.28
2023-02-15T15:15:28.816Z,97566.69
2023-02-15T15:18:08.349Z,97567.47
2023-02-15T15:20:51.655Z,97563.50
2023-02-15T15:23:21.970Z,97560.09
2023-02-15T15:25:52.805Z,97570.84
2023-02-15T15:28:34.912Z,97572.09
2023-02-15T15:31:20.263Z,97573.41
2023-02-15T15:34:07.637Z,97571.91
2023-02-15T15:37:01.746Z,97573.69
2023-02-15T15:39:34.315Z,97574.56
2023-02-15T15:42:34.579Z,97572.06
2023-02-15T15:45:28.986Z,97567.97
2023-02-15T15:48:09.332Z,97568.38
2023-02-15T15:50:41.235Z,97574.16
2023-02-15T15:53:21.016Z,97581.69
2023-02-15T15:55:50.324Z,97575.13
2023-02-15T15:58:20.440Z,97577.31
2023-02-15T16:01:05.658Z,97581.03
2023-02-15T16:03:32.526Z,97584.84
2023-02-15T16:06:01.730Z,97584.81
2023-02-15T16:08:34.987Z,97588.50
2023-02-15T16:11:20.369Z,97590.69
2023-02-15T16:13:48.449Z,97594.03
2023-02-15T16:16:23.735Z,97594.31
2023-02-15T16:18:52.208Z,97594.03
2023-02-15T16:21:29.174Z,97592.22
2023-02-15T16:24:27.291Z,97590.16
2023-02-15T16:27:10.791Z,97585.34
2023-02-15T16:29:37.674Z,97595.38
2023-02-15T16:32:15.861Z,97587.78
2023-02-15T16:35:03.805Z,97588.59
2023-02-15T16:37:35.813Z,97590.50
2023-02-15T16:40:02.981Z,97593.19
2023-02-15T16:42:29.918Z,97582.25
2023-02-15T16:45:08.892Z,97587.56
2023-02-15T16:47:41.813Z,97592.72
2023-02-15T16:50:25.465Z,97596.09
2023-02-15T16:52:53.454Z,97587.59
2023-02-15T16:55:29.080Z,97596.78
2023-02-15T16:58:01.316Z,97591.47
2023-02-15T17:00:32.888Z,97586.94
2023-02-15T17:03:22.282Z,97591.38
2023-02-15T17:05:59.195Z,97591.28
2023-02-15T17:08:31.084Z,97597.34
2023-02-15T17:11:14.432Z,97608.44
2023-02-15T17:14:09.580Z,97606.28
2023-02-15T17:16:45.504Z,97604.72
2023-02-15T17:19:27.104Z,97616.66
2023-02-15T17:21:58.334Z,97611.44
2023-02-15T17:24:42.544Z,97619.69
2023-02-15T17:27:32.040Z,97627.72
2023-02-15T17:30:13.526Z,97631.03
2023-02-15T17:33:01.684Z,97630.75
2023-02-15T17:35:33.368Z,97620.59
2023-02-15T17:38:18.758Z,97636.22
2023-02-15T17:40:45.629Z,97628.88
2023-02-15T17:43:12.493Z,97625.66
2023-02-15T17:45:50.213Z,97637.69
2023-02-15T17:48:31.613Z,97630.16
2023-02-15T17:51:03.503Z,97627.28
2023-02-15T17:53:31.088Z,97636.59
2023-02-15T17:55:58.340Z,97642.28
2023-02-15T17:58:25.392Z,97640.34
2023-02-15T18:01:14.818Z,97622.97
2023-02-15T18:04:07.802Z,97628.28
2023-02-15T18:06:56.727Z,97629.94
2023-02-15T18:09:43.129Z,97641.78
2023-02-15T18:12:21.143Z,97644.22
2023-02-15T18:14:48.735Z,97636.06
2023-02-15T18:17:17.121Z,97634.81
2023-02-15T18:19:45.959Z,97628.56
2023-02-15T18:22:16.368Z,97635.41
2023-02-15T18:24:43.907Z,97630.56
2023-02-15T18:27:13.325Z,97639.53
2023-02-15T18:29:40.688Z,97634.00
2023-02-15T18:32:23.685Z,97630.72
2023-02-15T18:34:52.218Z,97632.88
2023-02-15T18:37:22.164Z,97627.56
2023-02-15T18:39:54.068Z,97628.38
2023-02-15T18:42:28.050Z,97639.09
2023-02-15T18:45:32.398Z,97654.22
2023-02-15T18:47:59.278Z,97644.28
2023-02-15T18:50:31.608Z,97652.59
2023-02-15T18:52:58.424Z,97648.09
2023-02-15T18:55:28.199Z,97657.66
2023-02-15T18:57:57.268Z,97659.78
2023-02-15T19:00:43.470Z,97657.28
2023-02-15T19:03:14.057Z,97652.69
2023-02-15T19:05:44.769Z,97655.66
2023-02-15T19:08:24.606Z,97654.25
2023-02-15T19:10:52.246Z,97655.81
2023-02-15T19:13:19.684Z,97664.13
2023-02-15T19:15:46.575Z,97659.66
2023-02-15T19:18:13.477Z,97660.72
2023-02-15T19:20:44.668Z,97666.97
2023-02-15T19:23:21.528Z,97670.19
2023-02-15T19:25:50.537Z,97662.97
2023-02-15T19:28:32.821Z,97664.38
2023-02-15T19:30:59.830Z,97659.41
2023-02-15T19:33:26.758Z,97665.16
2023-02-15T19:35:57.175Z,97663.44
2023-02-15T19:38:29.503Z,97651.81
2023-02-15T19:41:07.327Z,97658.00
2023-02-15T19:43:34.999Z,97650.41
2023-02-15T19:46:02.204Z,97657.69
2023-02-15T19:48:29.170Z,97655.88
2023-02-15T19:50:57.030Z,97662.25
2023-02-15T19:53:26.809Z,97655.50
2023-02-15T19:55:53.760Z,97654.22
2023-02-15T19:58:22.140Z,97646.94
2023-02-15T20:00:51.483Z,97643.59
2023-02-15T20:03:18.481Z,97645.97
2023-02-15T20:05:45.739Z,97649.94
2023-02-15T20:08:22.085Z,97638.81
2023-02-15T20:10:49.520Z,97635.22
2023-02-15T20:13:19.107Z,97641.44
2023-02-15T20:15:47.288Z,97644.59
2023-02-15T20:18:14.178Z,97639.69
2023-02-15T20:20:44.050Z,97640.03
2023-02-15T20:23:30.630Z,97646.06
2023-02-15T20:26:00.472Z,97642.84
2023-02-15T20:28:31.691Z,97644.28
2023-02-15T20:30:59.534Z,97632.44
2023-02-15T20:33:26.544Z,97632.50
2023-02-15T20:35:53.449Z,97636.97
2023-02-15T20:38:29.143Z,97629.56
2023-02-15T20:41:16.026Z,97616.94
2023-02-15T20:43:44.799Z,97625.19
2023-02-15T20:46:11.887Z,97633.34
2023-02-15T20:48:38.775Z,97635.09
2023-02-15T20:51:06.904Z,97634.13
2023-02-15T20:53:33.788Z,97632.38
2023-02-15T20:56:00.711Z,97632.97
2023-02-15T20:58:30.410Z,97630.56
2023-02-15T21:00:59.337Z,97629.34
2023-02-15T21:03:30.803Z,97632.56
2023-02-15T21:05:59.155Z,97625.22
2023-02-15T21:08:27.138Z,97625.13
2023-02-15T21:10:54.593Z,97620.09
2023-02-15T21:13:32.948Z,97623.53
2023-02-15T21:16:00.446Z,97616.44
2023-02-15T21:18:42.573Z,97631.06
2023-02-15T21:21:35.881Z,97628.09
2023-02-15T21:24:02.781Z,97633.25
2023-02-15T21:26:29.732Z,97633.56
2023-02-15T21:28:57.189Z,97622.44
2023-02-15T21:31:26.177Z,97636.75
2023-02-15T21:33:53.300Z,97637.84
2023-02-15T21:36:24.248Z,97627.22
2023-02-15T21:38:53.665Z,97633.81
2023-02-15T21:41:41.604Z,97635.56
2023-02-15T21:44:41.985Z,97629.59
2023-02-15T21:47:40.664Z,97626.16
2023-02-15T21:50:30.726Z,97628.53
2023-02-15T21:52:58.257Z,97625.84
2023-02-15T21:55:25.188Z,97630.28
2023-02-15T21:57:52.215Z,97621.81
2023-02-15T22:00:22.259Z,97623.72
2023-02-15T22:02:53.285Z,97634.84
2023-02-15T22:05:30.422Z,97633.50
2023-02-15T22:07:57.427Z,97612.34
2023-02-15T22:10:32.362Z,97621.59
2023-02-15T22:13:03.653Z,97624.00
2023-02-15T22:15:37.530Z,97617.81
2023-02-15T22:18:05.914Z,97625.13
2023-02-15T22:20:32.976Z,97624.19
2023-02-15T22:22:59.829Z,97623.75
2023-02-15T22:25:27.275Z,97612.88
2023-02-15T22:27:54.823Z,97601.56
2023-02-15T22:30:28.877Z,97611.22
2023-02-15T22:32:57.789Z,97608.72
2023-02-15T22:35:33.521Z,97600.38
2023-02-15T22:38:01.245Z,97601.69
2023-02-15T22:40:34.694Z,97602.97
2023-02-15T22:43:04.560Z,97594.25
2023-02-15T22:45:33.532Z,97599.19
2023-02-15T22:48:01.252Z,97599.69
2023-02-15T22:50:32.294Z,97594.63
2023-02-15T22:53:03.555Z,97595.88
2023-02-15T22:55:36.808Z,97594.25
2023-02-15T22:58:04.521Z,97597.22
2023-02-15T23:00:40.219Z,97593.88
2023-02-15T23:03:24.029Z,97588.94
2023-02-15T23:05:52.009Z,97585.75
2023-02-15T23:08:19.215Z,97588.47
2023-02-15T23:10:51.477Z,97585.06
2023-02-15T23:13:26.354Z,97583.16
2023-02-15T23:16:00.798Z,97579.16
2023-02-15T23:18:39.657Z,97584.34
2023-02-15T23:21:22.643Z,97587.41
2023-02-15T23:23:53.550Z,97575.16
2023-02-15T23:26:31.513Z,97573.75
2023-02-15T23:29:00.890Z,97571.16
2023-02-15T23:31:34.610Z,97570.88
2023-02-15T23:34:13.613Z,97584.81
2023-02-15T23:36:40.535Z,97591.56
2023-02-15T23:39:39.966Z,97592.59
2023-02-15T23:42:29.407Z,97587.06
2023-02-15T23:44:56.911Z,97593.78
2023-02-15T23:47:53.992Z,97589.09
2023-02-15T23:50:27.712Z,97586.72
2023-02-15T23:52:56.750Z,97581.50
2023-02-15T23:55:35.397Z,97580.19
2023-02-15T23:58:04.692Z,97577.50
